Terminal Aerodrome Forecast
Issued by NWS La Crosse, WI

Home | Current Version | Previous Version | Text Only | Print | Product List | Glossary On
Versions: 1 2 3 4 5 6 7 8 9 10 11 12 13 14 15 16 17 18 19 20 21 22 23 24 25 26 27 28 29
000
FTUS43 KARX 221308 AAA
TAFLSE
TAF AMD
KLSE 221308Z 2213/2312 19009KT P6SM SCT025
      TEMPO 2213/2215 BKN025
     FM221500 24012KT P6SM SCT020
     FM221700 29014G18KT P6SM SKC
     FM230100 33007KT P6SM SKC
     FM230600 36003KT P6SM SKC=

USA.gov is the U.S. government's official web portal to all federal, state and local government web resources and services.